Time;durP1;ratioP1;P1;durP2;ratioP2;P2;SDS_P1;SDS_P2;PMS_P1;PMS_P2;Temp;Humidity;BMP_temperature;BMP_pressure;BME280_temperature;BME280_humidity;BME280_pressure;Samples;Min_cycle;Max_cycle;Signal;HPM_P1;HPM_P2
2021/04/19 00:00:52;;;;;;;40.93;18.63;;;;;;;3.76;100.00;96467.78;5056959;28;20258;-70
2021/04/19 00:06:40;;;;;;;36.83;16.57;;;;;;;3.73;100.00;96470.66;5052401;28;20246;-69
2021/04/19 00:09:06;;;;;;;37.47;18.80;;;;;;;3.70;100.00;96474.34;5055642;28;20215;-69
2021/04/19 00:11:32;;;;;;;38.03;18.13;;;;;;;3.74;100.00;96473.13;5055706;28;20223;-69
2021/04/19 00:13:59;;;;;;;41.40;19.70;;;;;;;3.69;100.00;96475.31;5056584;28;20296;-69
2021/04/19 00:16:25;;;;;;;39.37;18.10;;;;;;;3.66;100.00;96472.94;5056184;28;20220;-69
2021/04/19 00:18:51;;;;;;;37.70;19.00;;;;;;;3.68;100.00;96467.63;5056531;28;20204;-70
2021/04/19 00:21:17;;;;;;;41.97;19.13;;;;;;;3.83;100.00;96467.13;5056140;28;20211;-70
2021/04/19 00:23:43;;;;;;;34.33;17.80;;;;;;;3.73;100.00;96463.66;5056574;28;20338;-71
2021/04/19 00:26:09;;;;;;;35.03;17.37;;;;;;;3.81;100.00;96457.81;5054882;28;20224;-71
2021/04/19 00:28:35;;;;;;;40.67;19.07;;;;;;;3.84;100.00;96460.94;5056051;28;20666;-68
2021/04/19 00:31:02;;;;;;;41.83;20.47;;;;;;;3.81;100.00;96461.22;5056288;28;20223;-69
2021/04/19 00:33:29;;;;;;;46.90;19.63;;;;;;;3.86;100.00;96456.44;5056063;28;20255;-70
2021/04/19 00:35:55;;;;;;;43.20;19.23;;;;;;;3.94;100.00;96455.78;5055615;28;20208;-68
2021/04/19 00:38:21;;;;;;;44.57;20.20;;;;;;;3.86;100.00;96456.44;5055672;28;20228;-69
2021/04/19 00:40:50;;;;;;;44.73;18.47;;;;;;;3.94;100.00;96456.59;5056190;28;20278;-69
2021/04/19 00:43:16;;;;;;;39.90;18.57;;;;;;;3.93;100.00;96457.56;5055860;28;20201;-73
2021/04/19 00:45:43;;;;;;;45.77;19.67;;;;;;;3.96;100.00;96457.31;5055894;28;20220;-71
2021/04/19 00:48:10;;;;;;;41.33;18.57;;;;;;;4.00;100.00;96453.47;5056198;28;20224;-71
2021/04/19 00:50:36;;;;;;;40.63;19.07;;;;;;;3.94;100.00;96446.19;5056013;28;20212;-69
2021/04/19 00:53:04;;;;;;;38.87;18.90;;;;;;;3.87;100.00;96452.88;5056006;28;20255;-69
2021/04/19 00:55:30;;;;;;;40.33;19.43;;;;;;;3.85;100.00;96449.56;5056319;28;20200;-72
2021/04/19 00:57:56;;;;;;;40.73;18.80;;;;;;;3.82;100.00;96447.25;5056826;28;20224;-69
2021/04/19 01:00:26;;;;;;;35.13;17.10;;;;;;;3.75;100.00;96446.09;5057926;28;20208;-69
2021/04/19 01:02:52;;;;;;;42.67;19.80;;;;;;;3.76;100.00;96446.94;5060175;28;20204;-69
2021/04/19 01:05:24;;;;;;;35.73;16.93;;;;;;;3.73;100.00;96445.41;5059713;28;20212;-70
2021/04/19 01:07:50;;;;;;;32.47;15.70;;;;;;;3.74;100.00;96444.47;5060077;28;20225;-69
2021/04/19 01:10:16;;;;;;;32.57;16.30;;;;;;;3.77;100.00;96440.78;5059320;28;20227;-72
2021/04/19 01:12:42;;;;;;;36.47;17.37;;;;;;;3.75;100.00;96435.66;5059880;28;20204;-69
2021/04/19 01:15:09;;;;;;;37.30;18.20;;;;;;;3.80;100.00;96435.28;5058791;28;20630;-69
2021/04/19 01:17:36;;;;;;;38.30;17.93;;;;;;;3.64;100.00;96433.19;5059902;28;20228;-71
2021/04/19 01:20:06;;;;;;;38.40;18.37;;;;;;;3.60;100.00;96427.53;5059510;28;20294;-70
2021/04/19 01:22:33;;;;;;;41.87;18.53;;;;;;;3.66;100.00;96431.25;5059186;28;20235;-70
2021/04/19 01:24:59;;;;;;;43.97;19.83;;;;;;;3.74;100.00;96428.84;5059489;28;20205;-69
2021/04/19 01:27:25;;;;;;;39.57;18.47;;;;;;;3.64;100.00;96433.19;5059396;28;20232;-69
2021/04/19 01:29:50;;;;;;;42.40;19.47;;;;;;;3.36;100.00;96435.66;5059532;28;20295;-69
2021/04/19 01:32:16;;;;;;;44.37;19.33;;;;;;;3.46;100.00;96436.50;5060067;28;20813;-72
2021/04/19 01:34:43;;;;;;;39.27;18.73;;;;;;;3.55;100.00;96433.13;5058941;28;20204;-71
2021/04/19 01:37:09;;;;;;;40.50;19.47;;;;;;;3.56;100.00;96431.34;5058979;28;20732;-69
2021/04/19 01:39:36;;;;;;;40.67;17.33;;;;;;;3.62;100.00;96432.47;5058895;28;20227;-72
2021/04/19 01:42:02;;;;;;;33.47;17.47;;;;;;;3.55;100.00;96433.13;5059643;28;20205;-69
2021/04/19 01:44:28;;;;;;;40.87;18.50;;;;;;;3.64;100.00;96429.75;5059319;28;20212;-69
2021/04/19 01:46:54;;;;;;;38.07;17.87;;;;;;;3.64;100.00;96430.56;5058301;28;20694;-72
2021/04/19 01:49:20;;;;;;;44.43;18.77;;;;;;;3.64;100.00;96425.34;5059357;28;20266;-71
2021/04/19 01:51:47;;;;;;;42.63;19.57;;;;;;;3.72;100.00;96433.34;5059441;28;20204;-70
2021/04/19 01:54:13;;;;;;;46.60;20.40;;;;;;;3.71;100.00;96438.69;5058986;28;20207;-69
2021/04/19 01:56:40;;;;;;;40.77;20.83;;;;;;;3.65;100.00;96436.59;5058281;28;20216;-69
2021/04/19 01:59:08;;;;;;;40.73;20.07;;;;;;;3.77;100.00;96433.78;5058753;28;20662;-70
2021/04/19 02:01:40;;;;;;;43.63;20.40;;;;;;;3.81;100.00;96429.94;5058098;28;20203;-70
2021/04/19 02:04:14;;;;;;;43.87;20.27;;;;;;;3.78;100.00;96432.81;5059073;28;20211;-69
2021/04/19 02:06:47;;;;;;;44.57;18.83;;;;;;;3.86;100.00;96427.78;5057625;28;20721;-69
2021/04/19 02:09:20;;;;;;;41.10;19.23;;;;;;;3.94;100.00;96429.72;5058184;28;20219;-69
2021/04/19 02:12:01;;;;;;;43.67;20.33;;;;;;;3.95;100.00;96434.81;5057397;28;20242;-69
2021/04/19 02:14:35;;;;;;;43.57;19.83;;;;;;;4.01;100.00;96434.28;5060097;28;20205;-71
2021/04/19 02:17:09;;;;;;;44.47;20.10;;;;;;;4.04;100.00;96435.81;5057734;28;20223;-69
2021/04/19 02:19:41;;;;;;;43.03;19.57;;;;;;;4.04;100.00;96435.81;5059313;28;20871;-70
2021/04/19 02:22:14;;;;;;;42.60;20.40;;;;;;;3.84;100.00;96432.28;5059434;28;20208;-73
2021/04/19 02:24:45;;;;;;;45.33;20.93;;;;;;;3.98;100.00;96428.50;5058063;28;20270;-69
2021/04/19 02:27:18;;;;;;;47.47;21.37;;;;;;;3.98;100.00;96439.75;5057262;28;20232;-73
2021/04/19 02:29:48;;;;;;;49.50;21.47;;;;;;;4.00;100.00;96437.84;5059297;28;20568;-70
2021/04/19 02:32:18;;;;;;;45.10;20.93;;;;;;;4.01;100.00;96439.50;5058131;28;20207;-72
2021/04/19 02:34:47;;;;;;;48.23;20.47;;;;;;;3.81;100.00;96439.56;5058653;28;20197;-69
2021/04/19 02:37:14;;;;;;;38.13;18.47;;;;;;;3.81;100.00;96442.97;5057032;28;20303;-69
2021/04/19 02:39:43;;;;;;;39.13;19.00;;;;;;;3.88;100.00;96440.66;5058196;28;20204;-69
2021/04/19 02:42:11;;;;;;;46.00;19.27;;;;;;;3.85;100.00;96439.16;5057727;28;20682;-71
2021/04/19 02:44:38;;;;;;;43.37;19.00;;;;;;;3.88;100.00;96435.44;5058665;28;20291;-70
2021/04/19 02:47:05;;;;;;;38.50;18.07;;;;;;;3.78;100.00;96437.19;5057363;28;20228;-72
2021/04/19 02:49:35;;;;;;;41.03;18.43;;;;;;;3.71;100.00;96431.69;5057981;28;20208;-69
2021/04/19 02:52:04;;;;;;;44.60;19.80;;;;;;;3.78;100.00;96431.97;5058155;28;20291;-70
2021/04/19 02:54:32;;;;;;;39.03;18.83;;;;;;;3.88;100.00;96422.41;5058407;28;20204;-69
2021/04/19 02:57:00;;;;;;;40.33;18.13;;;;;;;3.90;100.00;96430.94;5053324;28;20319;-70
2021/04/19 02:59:29;;;;;;;41.43;18.10;;;;;;;3.89;100.00;96432.72;5058028;28;20571;-70
2021/04/19 03:02:02;;;;;;;41.10;19.13;;;;;;;3.86;100.00;96433.00;5057973;28;20226;-71
2021/04/19 03:04:36;;;;;;;40.27;19.67;;;;;;;3.90;100.00;96430.94;5057755;28;20212;-69
2021/04/19 03:07:07;;;;;;;46.87;20.20;;;;;;;3.93;100.00;96428.88;5056449;28;20235;-70
2021/04/19 03:09:35;;;;;;;43.17;19.30;;;;;;;4.01;100.00;96417.78;5057153;28;21160;-69
2021/04/19 03:12:04;;;;;;;41.20;20.00;;;;;;;4.04;100.00;96425.38;5056987;28;20215;-70
2021/04/19 03:14:34;;;;;;;41.47;20.13;;;;;;;4.02;100.00;96425.50;5057655;28;20204;-70
2021/04/19 03:17:03;;;;;;;43.10;20.33;;;;;;;4.00;100.00;96424.00;5055942;28;21018;-72
2021/04/19 03:19:32;;;;;;;50.07;21.23;;;;;;;4.02;100.00;96420.28;5057127;28;20207;-72
2021/04/19 03:21:59;;;;;;;45.30;20.47;;;;;;;3.98;100.00;96418.88;5057915;28;20208;-69
2021/04/19 03:24:27;;;;;;;47.77;21.90;;;;;;;4.03;100.00;96414.09;5058431;28;20246;-69
2021/04/19 03:26:54;;;;;;;52.33;21.40;;;;;;;4.09;100.00;96413.56;5055889;28;20224;-69
2021/04/19 03:29:21;;;;;;;50.43;20.83;;;;;;;4.08;100.00;96409.31;5056780;28;20971;-69
2021/04/19 03:31:51;;;;;;;45.87;21.00;;;;;;;4.13;100.00;96407.13;5057669;28;20211;-72
2021/04/19 03:34:21;;;;;;;47.33;22.40;;;;;;;4.10;100.00;96410.00;5057972;28;20223;-69
2021/04/19 03:36:50;;;;;;;46.73;21.70;;;;;;;4.14;100.00;96405.34;5056392;28;20274;-72
2021/04/19 03:39:19;;;;;;;50.33;20.67;;;;;;;4.09;100.00;96405.75;5056965;28;21150;-73
2021/04/19 03:41:49;;;;;;;45.73;20.80;;;;;;;4.15;100.00;96404.38;5056781;28;20212;-72
2021/04/19 03:44:22;;;;;;;46.47;20.40;;;;;;;4.10;100.00;96415.22;5057197;28;20295;-72
2021/04/19 03:46:50;;;;;;;46.47;20.67;;;;;;;4.12;100.00;96410.69;5055596;28;20327;-71
2021/04/19 03:49:23;;;;;;;43.70;20.53;;;;;;;4.11;100.00;96423.88;5057393;28;20283;-71
2021/04/19 03:51:55;;;;;;;41.60;19.50;;;;;;;4.16;100.00;96417.28;5056456;28;20795;-69
2021/04/19 03:54:21;;;;;;;50.27;20.67;;;;;;;4.16;100.00;96411.25;5056768;28;20208;-70
2021/04/19 03:56:49;;;;;;;46.03;21.57;;;;;;;4.20;100.00;96415.25;5056156;28;20220;-71
2021/04/19 03:59:18;;;;;;;42.73;20.57;;;;;;;4.18;100.00;96414.56;5056664;28;20207;-69
2021/04/19 04:01:46;;;;;;;48.07;21.50;;;;;;;4.23;100.00;96421.03;5056681;28;20229;-69
2021/04/19 04:04:14;;;;;;;45.17;21.27;;;;;;;4.26;100.00;96413.75;5056605;28;20553;-69
2021/04/19 04:06:42;;;;;;;49.57;21.53;;;;;;;4.25;100.00;96416.47;5056136;28;20240;-70
2021/04/19 04:09:09;;;;;;;45.50;21.27;;;;;;;4.27;100.00;96415.38;5056233;28;20204;-72
2021/04/19 04:11:36;;;;;;;49.50;21.33;;;;;;;4.28;100.00;96411.00;5056608;28;20211;-72
2021/04/19 04:14:03;;;;;;;51.83;22.60;;;;;;;4.31;100.00;96418.56;5056512;28;20207;-72
2021/04/19 04:16:29;;;;;;;49.83;21.33;;;;;;;4.36;100.00;96417.19;5056185;28;20361;-72
2021/04/19 04:18:55;;;;;;;50.87;21.07;;;;;;;4.29;100.00;96408.25;5056385;28;20670;-69
2021/04/19 04:21:21;;;;;;;50.30;22.63;;;;;;;4.23;100.00;96413.19;5057240;28;20253;-69
2021/04/19 04:23:48;;;;;;;55.80;24.10;;;;;;;4.26;100.00;96418.13;5056669;28;20212;-72
2021/04/19 04:26:15;;;;;;;50.27;22.90;;;;;;;4.30;100.00;96416.91;5055864;28;20228;-70
2021/04/19 04:28:44;;;;;;;54.50;22.90;;;;;;;4.25;100.00;96416.47;5055967;28;20223;-69
2021/04/19 04:31:11;;;;;;;49.20;22.17;;;;;;;4.28;100.00;96422.25;5054835;28;20200;-72
2021/04/19 04:33:37;;;;;;;47.00;21.27;;;;;;;4.33;100.00;96425.28;5055827;28;20200;-72
2021/04/19 04:36:03;;;;;;;51.17;21.93;;;;;;;4.35;100.00;96422.53;5055270;28;20625;-71
2021/04/19 04:38:29;;;;;;;81.93;30.60;;;;;;;4.35;100.00;96419.94;5056161;28;20258;-72
2021/04/19 04:40:56;;;;;;;67.70;27.07;;;;;;;4.35;100.00;96425.16;5055855;28;20216;-70
2021/04/19 04:43:25;;;;;;;56.87;24.33;;;;;;;4.32;100.00;96422.81;5055798;28;21237;-70
2021/04/19 04:45:55;;;;;;;51.00;23.17;;;;;;;4.42;100.00;96429.69;5055467;28;20224;-73
2021/04/19 04:48:27;;;;;;;49.50;23.73;;;;;;;4.46;100.00;96425.03;5056585;28;20286;-73
2021/04/19 04:50:59;;;;;;;49.57;22.40;;;;;;;4.39;100.00;96424.75;5056565;28;20204;-69
2021/04/19 04:53:32;;;;;;;49.30;22.70;;;;;;;4.38;100.00;96423.09;5057045;28;20257;-71
2021/04/19 04:56:00;;;;;;;49.13;22.93;;;;;;;4.42;100.00;96424.47;5054827;28;20764;-72
2021/04/19 04:58:28;;;;;;;59.43;23.97;;;;;;;4.41;100.00;96417.59;5056098;28;20204;-72
2021/04/19 05:00:55;;;;;;;55.33;22.87;;;;;;;4.42;100.00;96429.69;5056170;28;20219;-71
2021/04/19 05:03:24;;;;;;;48.50;22.13;;;;;;;4.42;100.00;96423.66;5056226;28;20215;-70
2021/04/19 05:05:50;;;;;;;51.07;22.27;;;;;;;4.50;100.00;96424.63;5055293;28;20349;-72
2021/04/19 05:08:16;;;;;;;52.43;22.93;;;;;;;4.48;100.00;96423.09;5056200;28;20232;-72
2021/04/19 05:10:43;;;;;;;48.37;23.10;;;;;;;4.53;100.00;96431.34;5055356;28;20211;-70
2021/04/19 05:13:11;;;;;;;48.60;22.30;;;;;;;4.44;100.00;96429.56;5055745;28;20204;-70
2021/04/19 05:15:42;;;;;;;50.93;24.13;;;;;;;4.42;100.00;96434.09;5055749;28;20204;-70
2021/04/19 05:18:11;;;;;;;46.30;22.50;;;;;;;4.43;100.00;96433.97;5055972;28;20212;-72
2021/04/19 05:20:37;;;;;;;51.53;23.13;;;;;;;4.47;100.00;96430.13;5055493;28;20302;-69
2021/04/19 05:23:03;;;;;;;54.47;24.50;;;;;;;4.56;100.00;96433.72;5055737;28;20208;-69
2021/04/19 05:25:29;;;;;;;55.10;23.57;;;;;;;4.68;100.00;96432.59;5054847;28;20212;-70
2021/04/19 05:27:56;;;;;;;52.03;23.70;;;;;;;4.65;100.00;96438.09;5055169;28;20228;-71
2021/04/19 05:30:24;;;;;;;53.33;24.27;;;;;;;4.67;100.00;96444.84;5055778;28;20738;-70
2021/04/19 05:32:50;;;;;;;55.63;24.57;;;;;;;4.67;100.00;96441.38;5055782;28;20205;-73
2021/04/19 05:35:17;;;;;;;51.73;23.83;;;;;;;4.71;100.00;96440.16;5054823;28;20218;-70
2021/04/19 05:37:45;;;;;;;58.80;24.60;;;;;;;4.72;100.00;96433.97;5055277;28;20278;-75
2021/04/19 05:40:13;;;;;;;59.23;24.80;;;;;;;4.70;100.00;96438.50;5055727;28;20201;-70
2021/04/19 05:42:39;;;;;;;56.50;24.97;;;;;;;4.69;100.00;96440.28;5055543;28;20247;-72
2021/04/19 05:45:07;;;;;;;58.47;25.17;;;;;;;4.71;100.00;96442.75;5055116;28;20580;-72
2021/04/19 05:47:34;;;;;;;54.63;25.13;;;;;;;4.77;100.00;96444.84;5058361;28;20235;-70
2021/04/19 05:50:00;;;;;;;68.60;30.07;;;;;;;4.82;100.00;96454.75;5059482;28;20230;-70
2021/04/19 05:52:27;;;;;;;51.57;23.67;;;;;;;4.81;100.00;96457.47;5059214;28;20757;-69
2021/04/19 05:54:53;;;;;;;52.50;22.77;;;;;;;4.82;100.00;96459.97;5059174;28;20219;-74
2021/04/19 05:57:29;;;;;;;48.33;22.13;;;;;;;4.92;100.00;96452.13;5058228;28;20733;-70
2021/04/19 06:00:04;;;;;;;48.90;22.80;;;;;;;4.89;100.00;96461.06;5059590;28;20213;-73
2021/04/19 06:02:38;;;;;;;53.57;22.87;;;;;;;4.80;100.00;96466.28;5059264;28;20207;-70
2021/04/19 06:05:07;;;;;;;56.93;23.07;;;;;;;4.78;100.00;96456.94;5057976;28;20200;-71
2021/04/19 06:07:41;;;;;;;55.20;23.73;;;;;;;4.69;100.00;96452.53;5058955;28;20229;-69
2021/04/19 06:10:12;;;;;;;52.17;23.80;;;;;;;4.59;100.00;96456.91;5058201;28;20560;-74
2021/04/19 06:12:44;;;;;;;60.90;23.80;;;;;;;4.58;100.00;96450.88;5058803;28;20287;-73
2021/04/19 06:15:13;;;;;;;63.43;25.20;;;;;;;4.56;100.00;96449.38;5057948;28;20205;-69
2021/04/19 06:17:44;;;;;;;57.17;23.80;;;;;;;4.65;100.00;96451.97;5058537;28;20232;-74
2021/04/19 06:20:13;;;;;;;45.50;21.50;;;;;;;4.67;100.00;96455.28;5058715;28;20205;-71
2021/04/19 06:22:40;;;;;;;52.20;22.60;;;;;;;4.74;100.00;96443.31;5058842;28;20211;-73
2021/04/19 06:25:09;;;;;;;48.07;22.80;;;;;;;4.88;100.00;96443.72;5057857;28;20940;-73
2021/04/19 06:27:35;;;;;;;58.07;24.73;;;;;;;4.87;100.00;96444.72;5058669;28;20261;-70
2021/04/19 06:30:13;;;;;;;74.83;30.93;;;;;;;4.91;100.00;96448.69;5058301;28;20322;-70
2021/04/19 06:32:39;;;;;;;56.90;23.20;;;;;;;4.71;100.00;96445.38;5058970;28;20205;-70
2021/04/19 06:35:09;;;;;;;48.17;21.80;;;;;;;4.82;100.00;96444.31;5057502;28;20215;-73
2021/04/19 06:37:35;;;;;;;49.70;22.10;;;;;;;5.03;100.00;96450.19;5057807;28;20227;-69
2021/04/19 06:40:02;;;;;;;53.63;25.27;;;;;;;5.11;100.00;96439.88;5058053;28;20311;-73
2021/04/19 06:42:29;;;;;;;55.07;23.03;;;;;;;5.06;100.00;96441.25;5057898;28;20236;-74
2021/04/19 06:44:55;;;;;;;48.07;22.93;;;;;;;5.26;100.00;96443.72;5058150;28;20220;-72
2021/04/19 06:47:23;;;;;;;49.87;23.93;;;;;;;5.35;100.00;96450.72;5057225;28;20229;-74
2021/04/19 06:49:50;;;;;;;49.23;23.13;;;;;;;5.44;100.00;96447.25;5058756;28;20211;-69
2021/04/19 06:52:17;;;;;;;51.40;23.53;;;;;;;5.56;100.00;96446.94;5058340;28;20204;-68
2021/04/19 06:54:44;;;;;;;45.80;22.20;;;;;;;5.71;100.00;96449.94;5057896;28;20204;-69
2021/04/19 06:57:14;;;;;;;45.80;20.73;;;;;;;5.67;100.00;96441.53;5056836;28;20220;-73
2021/04/19 06:59:44;;;;;;;46.47;22.03;;;;;;;5.54;100.00;96443.63;5057889;28;20200;-70
2021/04/19 07:02:20;;;;;;;52.37;22.67;;;;;;;5.50;100.00;96451.91;5058852;28;20674;-73
2021/04/19 07:04:50;;;;;;;52.70;22.37;;;;;;;5.53;100.00;96451.63;5057546;28;20302;-70
2021/04/19 07:07:23;;;;;;;48.40;22.73;;;;;;;5.55;100.00;96445.31;5057026;28;20228;-69
2021/04/19 07:09:51;;;;;;;48.80;22.87;;;;;;;5.71;100.00;96444.69;5057530;28;20200;-70
2021/04/19 07:12:21;;;;;;;54.47;23.03;;;;;;;5.85;100.00;96446.88;5058507;28;20205;-73
2021/04/19 07:14:49;;;;;;;51.37;23.23;;;;;;;5.81;100.00;96450.75;5057194;28;20258;-69
2021/04/19 07:17:16;;;;;;;51.30;23.40;;;;;;;5.95;100.00;96447.69;5057206;28;20224;-72
2021/04/19 07:19:42;;;;;;;50.50;23.37;;;;;;;6.06;100.00;96441.28;5054508;28;20200;-73
2021/04/19 07:22:10;;;;;;;55.03;21.23;;;;;;;6.35;100.00;96441.97;5055900;28;20320;-75
2021/04/19 07:24:37;;;;;;;46.07;21.23;;;;;;;6.45;100.00;96437.47;5056346;28;20209;-70
2021/04/19 07:27:04;;;;;;;44.97;22.07;;;;;;;6.62;100.00;96435.84;5055063;28;20236;-70
2021/04/19 07:29:30;;;;;;;48.20;23.27;;;;;;;6.85;100.00;96430.88;5056483;28;20204;-73
2021/04/19 07:31:58;;;;;;;44.13;21.17;;;;;;;7.06;100.00;96425.31;5056143;28;20208;-71
2021/04/19 07:34:26;;;;;;;45.70;21.97;;;;;;;7.20;100.00;96419.53;5056424;28;20536;-74
2021/04/19 07:36:55;;;;;;;48.27;21.83;;;;;;;7.20;100.00;96422.16;5055227;28;20227;-72
2021/04/19 07:39:22;;;;;;;45.60;21.50;;;;;;;7.42;100.00;96419.84;5055653;28;20208;-71
2021/04/19 07:41:51;;;;;;;39.87;20.37;;;;;;;7.49;99.22;96424.34;5055907;28;20871;-71
2021/04/19 07:44:35;;;;;;;45.27;20.77;;;;;;;7.57;97.58;96418.31;5056791;28;20208;-70
2021/04/19 07:47:36;;;;;;;36.63;20.10;;;;;;;7.64;98.12;96428.06;5054740;28;20255;-72
2021/04/19 07:50:21;;;;;;;38.03;19.27;;;;;;;7.66;96.51;96423.50;5056764;28;20197;-69
2021/04/19 07:52:56;;;;;;;40.90;20.60;;;;;;;7.71;96.30;96426.44;5055860;28;20204;-73
2021/04/19 07:55:25;;;;;;;40.23;18.93;;;;;;;7.78;96.94;96416.16;5055050;28;20289;-71
2021/04/19 07:57:52;;;;;;;43.00;18.97;;;;;;;7.96;95.60;96409.88;5055804;28;20224;-72
2021/04/19 08:00:31;;;;;;;40.73;20.17;;;;;;;8.08;95.35;96414.69;5055793;28;20212;-71
2021/04/19 08:03:05;;;;;;;39.13;18.53;;;;;;;8.14;94.22;96406.19;5055048;28;20693;-71
2021/04/19 08:05:33;;;;;;;47.37;19.67;;;;;;;8.29;91.71;96407.25;5055194;28;20216;-70
2021/04/19 08:08:00;;;;;;;38.97;17.63;;;;;;;8.43;91.99;96408.44;5054607;28;20235;-70
2021/04/19 08:10:27;;;;;;;34.97;18.03;;;;;;;8.32;91.83;96408.72;5054203;28;20217;-70
2021/04/19 08:13:09;;;;;;;35.40;16.23;;;;;;;8.44;91.24;96404.81;5054917;28;20216;-70
2021/04/19 08:15:36;;;;;;;35.23;18.40;;;;;;;8.57;90.67;96406.03;5055696;28;20205;-72
2021/04/19 08:18:05;;;;;;;38.10;18.80;;;;;;;8.67;89.21;96402.25;5054801;28;20217;-69
2021/04/19 08:20:31;;;;;;;31.60;16.07;;;;;;;8.82;88.45;96402.44;5055594;28;20673;-70
2021/04/19 08:23:10;;;;;;;34.13;17.60;;;;;;;9.07;89.29;96399.66;5055582;28;20212;-69
2021/04/19 08:25:41;;;;;;;34.57;17.33;;;;;;;9.18;86.31;96400.16;5055210;28;20246;-73
2021/04/19 08:28:10;;;;;;;39.33;18.00;;;;;;;9.26;85.93;96401.97;5054428;28;20294;-69
2021/04/19 08:30:38;;;;;;;36.60;16.73;;;;;;;9.26;86.97;96397.53;5055845;28;20285;-70
2021/04/19 08:33:05;;;;;;;37.37;18.37;;;;;;;9.20;85.19;96400.00;5055102;28;20211;-72
2021/04/19 08:35:31;;;;;;;33.27;15.80;;;;;;;9.23;83.33;96395.25;5054697;28;20213;-69
2021/04/19 08:38:00;;;;;;;32.40;17.33;;;;;;;9.52;85.00;96405.25;5054514;28;20396;-71
2021/04/19 08:40:28;;;;;;;35.87;16.70;;;;;;;9.93;83.16;96400.56;5055031;28;20626;-71
2021/04/19 08:42:56;;;;;;;27.63;14.00;;;;;;;9.98;79.99;96402.69;5054896;28;20205;-70
2021/04/19 08:45:24;;;;;;;26.40;13.83;;;;;;;9.96;77.76;96394.97;5054810;28;20211;-72
2021/04/19 08:47:51;;;;;;;25.60;12.70;;;;;;;9.74;78.40;96400.94;5054778;28;20228;-70
2021/04/19 08:50:21;;;;;;;26.27;13.07;;;;;;;9.67;79.64;96403.59;5054997;28;20196;-72
2021/04/19 08:52:47;;;;;;;29.17;15.00;;;;;;;9.88;79.64;96410.75;5055625;28;20204;-70
2021/04/19 08:55:14;;;;;;;27.07;14.33;;;;;;;10.07;79.14;96413.06;5054134;28;20200;-71
2021/04/19 08:57:44;;;;;;;28.13;13.93;;;;;;;10.24;76.70;96404.09;5054502;28;20231;-72
2021/04/19 09:00:12;;;;;;;27.03;14.07;;;;;;;10.08;76.74;96416.50;5054128;28;20205;-72
2021/04/19 09:02:40;;;;;;;27.00;14.13;;;;;;;10.35;76.44;96412.44;5055809;28;20215;-74
2021/04/19 09:05:09;;;;;;;29.27;14.57;;;;;;;10.59;74.05;96408.84;5054041;28;20200;-71
2021/04/19 09:07:37;;;;;;;29.63;14.87;;;;;;;10.51;75.21;96422.09;5050871;28;20946;-72
2021/04/19 09:10:04;;;;;;;30.50;14.67;;;;;;;10.37;74.93;96414.91;5054213;28;20236;-70
2021/04/19 09:12:31;;;;;;;24.47;12.87;;;;;;;10.45;72.17;96423.59;5054788;28;20251;-72
2021/04/19 09:15:30;;;;;;;24.07;12.40;;;;;;;10.50;72.10;96415.16;5054616;28;20571;-70
2021/04/19 09:18:06;;;;;;;26.07;12.57;;;;;;;10.56;70.98;96407.38;5054125;28;20217;-70
2021/04/19 09:20:35;;;;;;;22.23;11.70;;;;;;;10.71;70.33;96412.75;5054613;28;20285;-71
2021/04/19 09:23:16;;;;;;;25.53;13.00;;;;;;;10.85;70.03;96404.94;5058303;28;20607;-70
2021/04/19 09:25:43;;;;;;;23.30;12.70;;;;;;;10.97;69.64;96403.50;5057946;28;20200;-72
2021/04/19 09:28:09;;;;;;;28.00;12.30;;;;;;;10.97;67.51;96404.34;5055202;28;20781;-70
2021/04/19 09:30:36;;;;;;;20.97;10.80;;;;;;;10.93;66.57;96403.06;5057395;28;20205;-72
2021/04/19 09:33:24;;;;;;;18.20;9.87;;;;;;;11.06;64.41;96399.81;5057749;28;20204;-72
2021/04/19 09:35:52;;;;;;;14.90;8.17;;;;;;;11.01;62.06;96405.66;5057346;28;20200;-71
2021/04/19 09:38:54;;;;;;;15.20;9.23;;;;;;;11.32;64.04;96403.75;5058192;28;20281;-70
2021/04/19 09:41:21;;;;;;;21.63;11.90;;;;;;;11.37;64.41;96393.50;5057579;28;20199;-74
2021/04/19 09:43:51;;;;;;;21.70;11.67;;;;;;;11.20;64.62;96404.34;5058355;28;20578;-72
2021/04/19 09:46:27;;;;;;;22.30;11.90;;;;;;;11.14;66.21;96397.97;5057370;28;20301;-74
2021/04/19 09:48:59;;;;;;;26.60;12.87;;;;;;;11.14;67.62;96395.31;5058176;28;20200;-71
2021/04/19 09:51:29;;;;;;;23.40;12.30;;;;;;;11.32;67.92;96392.38;5057805;28;20209;-71
2021/04/19 09:53:59;;;;;;;26.07;13.37;;;;;;;11.70;71.13;96392.22;5057943;28;20211;-71
2021/04/19 09:56:28;;;;;;;26.10;13.40;;;;;;;11.80;66.50;96393.59;5057312;28;20925;-75
2021/04/19 09:58:54;;;;;;;23.87;13.10;;;;;;;11.87;67.46;96389.22;5059596;28;20208;-71
2021/04/19 10:01:22;;;;;;;25.07;11.47;;;;;;;11.79;66.66;96386.69;5058801;28;20216;-74
2021/04/19 10:03:50;;;;;;;23.97;12.60;;;;;;;11.71;67.11;96385.94;5059825;28;20204;-72
2021/04/19 10:06:21;;;;;;;19.73;11.47;;;;;;;11.81;66.65;96379.41;5058044;28;20200;-73
2021/04/19 10:08:49;;;;;;;21.30;11.60;;;;;;;11.73;66.39;96379.47;5058518;28;20228;-72
2021/04/19 10:11:16;;;;;;;25.03;11.93;;;;;;;11.90;66.15;96374.84;5058641;28;20216;-74
2021/04/19 10:13:43;;;;;;;25.00;12.33;;;;;;;11.74;64.21;96377.66;5059743;28;20551;-73
2021/04/19 10:16:11;;;;;;;22.33;12.30;;;;;;;11.70;63.99;96381.69;5058202;28;20212;-70
2021/04/19 10:18:40;;;;;;;22.90;12.43;;;;;;;11.79;63.91;96372.69;5059462;28;20204;-71
2021/04/19 10:21:07;;;;;;;21.37;10.77;;;;;;;11.85;63.10;96374.56;5058874;28;20266;-70
2021/04/19 10:23:38;;;;;;;20.87;11.47;;;;;;;11.76;63.87;96370.38;5058816;28;20205;-71
2021/04/19 10:26:05;;;;;;;24.27;11.30;;;;;;;11.66;66.01;96373.28;5057750;28;20215;-71
2021/04/19 10:28:33;;;;;;;21.87;11.33;;;;;;;11.71;64.27;96372.72;5058640;28;20222;-74
2021/04/19 10:31:13;;;;;;;21.55;10.80;;;;;;;11.64;64.71;96371.81;5058878;28;20239;-72
2021/04/19 10:33:40;;;;;;;21.92;10.85;;;;;;;11.72;63.42;96366.47;5057203;28;20200;-74
2021/04/19 10:36:11;;;;;;;19.48;10.70;;;;;;;11.77;61.84;96359.66;5057159;28;20211;-73
2021/04/19 10:38:39;;;;;;;22.73;10.93;;;;;;;12.15;61.44;96363.81;5058302;28;20201;-73
2021/04/19 10:41:05;;;;;;;18.17;10.40;;;;;;;12.23;60.70;96364.56;5057547;28;20679;-71
2021/04/19 10:43:31;;;;;;;20.20;10.67;;;;;;;12.04;61.43;96358.19;5057708;28;20265;-73
2021/04/19 10:45:57;;;;;;;21.20;11.03;;;;;;;12.14;60.04;96351.63;5058071;28;20207;-73
2021/04/19 10:48:25;;;;;;;19.48;9.95;;;;;;;12.16;61.71;96356.75;5057441;28;20224;-72
2021/04/19 10:50:53;;;;;;;17.43;9.20;;;;;;;11.89;61.43;96349.44;5057380;28;20208;-71
2021/04/19 10:53:35;;;;;;;21.30;10.03;;;;;;;12.01;60.09;96354.09;5057718;28;20250;-72
2021/04/19 10:56:03;;;;;;;19.50;9.63;;;;;;;11.95;59.85;96349.56;5056867;28;20250;-71
2021/04/19 10:58:31;;;;;;;19.90;10.77;;;;;;;11.98;61.72;96343.09;5057065;28;20211;-70
2021/04/19 11:00:58;;;;;;;22.27;10.97;;;;;;;12.08;60.49;96338.31;5056725;28;20730;-71
2021/04/19 11:03:24;;;;;;;22.02;10.80;;;;;;;12.39;60.09;96337.91;5057262;28;20204;-70
2021/04/19 11:05:50;;;;;;;20.92;10.63;;;;;;;12.37;61.82;96344.38;5055877;28;20688;-68
2021/04/19 11:08:16;;;;;;;18.35;10.43;;;;;;;12.37;62.86;96339.94;5056358;28;20741;-71
2021/04/19 11:10:42;;;;;;;17.70;9.30;;;;;;;12.31;60.31;96348.59;5056257;28;20261;-67
2021/04/19 11:13:10;;;;;;;17.30;9.65;;;;;;;12.31;61.28;96340.66;5057024;28;21047;-69
2021/04/19 11:15:38;;;;;;;21.30;12.15;;;;;;;11.83;64.85;96344.91;5056208;28;20211;-71
2021/04/19 11:18:19;;;;;;;22.45;12.10;;;;;;;11.92;66.55;96338.53;5057021;28;20224;-70
2021/04/19 11:20:46;;;;;;;29.52;11.98;;;;;;;11.93;64.77;96337.53;5057413;28;20212;-75
2021/04/19 11:23:23;;;;;;;22.17;11.87;;;;;;;11.78;66.37;96334.06;5055605;28;20208;-70
2021/04/19 11:25:50;;;;;;;20.52;11.68;;;;;;;12.07;65.87;96336.72;5056589;28;20211;-74
2021/04/19 11:28:19;;;;;;;23.88;12.75;;;;;;;12.14;66.87;96325.19;5056761;28;20254;-72
2021/04/19 11:30:46;;;;;;;24.88;12.65;;;;;;;12.04;68.61;96323.84;5054823;28;20213;-72